sensor_id;sensor_type;location;lat;lon;timestamp;pressure;altitude;pressure_sealevel;temperature;humidity
38716;BME280;24833;49.324;8.694;2022-09-20T00:01:29;100333.81;;;9.44;100.00
38716;BME280;24833;49.324;8.694;2022-09-20T00:04:00;100336.31;;;9.45;100.00
38716;BME280;24833;49.324;8.694;2022-09-20T00:06:30;100330.13;;;9.45;100.00
38716;BME280;24833;49.324;8.694;2022-09-20T00:08:57;100332.63;;;9.46;100.00
38716;BME280;24833;49.324;8.694;2022-09-20T00:11:29;100324.81;;;9.45;100.00
38716;BME280;24833;49.324;8.694;2022-09-20T00:13:57;100325.97;;;9.42;100.00
38716;BME280;24833;49.324;8.694;2022-09-20T00:16:31;100325.00;;;9.43;100.00
38716;BME280;24833;49.324;8.694;2022-09-20T00:19:00;100322.31;;;9.43;100.00
38716;BME280;24833;49.324;8.694;2022-09-20T00:21:32;100325.00;;;9.43;100.00
38716;BME280;24833;49.324;8.694;2022-09-20T00:23:59;100326.78;;;9.43;100.00
38716;BME280;24833;49.324;8.694;2022-09-20T00:26:27;100325.81;;;9.44;100.00
38716;BME280;24833;49.324;8.694;2022-09-20T00:28:56;100324.13;;;9.43;100.00
38716;BME280;24833;49.324;8.694;2022-09-20T00:31:23;100332.97;;;9.43;100.00
38716;BME280;24833;49.324;8.694;2022-09-20T00:33:54;100325.97;;;9.42;100.00
38716;BME280;24833;49.324;8.694;2022-09-20T00:36:41;100323.47;;;9.41;100.00
38716;BME280;24833;49.324;8.694;2022-09-20T00:39:11;100330.84;;;9.39;100.00
38716;BME280;24833;49.324;8.694;2022-09-20T00:41:38;100328.34;;;9.37;100.00
38716;BME280;24833;49.324;8.694;2022-09-20T00:47:34;100341.34;;;9.32;100.00
38716;BME280;24833;49.324;8.694;2022-09-20T00:50:34;100339.69;;;9.31;100.00
38716;BME280;24833;49.324;8.694;2022-09-20T00:53:22;100342.53;;;9.30;100.00
38716;BME280;24833;49.324;8.694;2022-09-20T00:56:07;100334.56;;;9.30;100.00
38716;BME280;24833;49.324;8.694;2022-09-20T00:58:40;100333.69;;;9.29;100.00
38716;BME280;24833;49.324;8.694;2022-09-20T01:01:10;100333.03;;;9.27;100.00
38716;BME280;24833;49.324;8.694;2022-09-20T01:03:38;100335.06;;;9.25;100.00
38716;BME280;24833;49.324;8.694;2022-09-20T01:06:12;100335.38;;;9.22;100.00
38716;BME280;24833;49.324;8.694;2022-09-20T01:08:42;100332.06;;;9.20;100.00
38716;BME280;24833;49.324;8.694;2022-09-20T01:11:11;100334.09;;;9.18;100.00
38716;BME280;24833;49.324;8.694;2022-09-20T01:13:38;100329.09;;;9.15;100.00
38716;BME280;24833;49.324;8.694;2022-09-20T01:16:06;100335.59;;;9.12;100.00
38716;BME280;24833;49.324;8.694;2022-09-20T01:18:35;100335.94;;;9.09;100.00
38716;BME280;24833;49.324;8.694;2022-09-20T01:21:03;100342.44;;;9.07;100.00
38716;BME280;24833;49.324;8.694;2022-09-20T01:23:48;100334.13;;;9.01;100.00
38716;BME280;24833;49.324;8.694;2022-09-20T01:27:06;100338.81;;;8.99;100.00
38716;BME280;24833;49.324;8.694;2022-09-20T01:32:25;100340.13;;;8.95;100.00
38716;BME280;24833;49.324;8.694;2022-09-20T01:34:59;100340.50;;;8.92;100.00
38716;BME280;24833;49.324;8.694;2022-09-20T01:37:51;100339.16;;;8.88;100.00
38716;BME280;24833;49.324;8.694;2022-09-20T01:40:42;100342.84;;;8.87;100.00
38716;BME280;24833;49.324;8.694;2022-09-20T01:46:34;100334.19;;;8.85;100.00
38716;BME280;24833;49.324;8.694;2022-09-20T01:49:36;100332.53;;;8.84;100.00
38716;BME280;24833;49.324;8.694;2022-09-20T01:58:30;100334.38;;;8.84;100.00
38716;BME280;24833;49.324;8.694;2022-09-20T02:13:06;100328.34;;;8.82;100.00
38716;BME280;24833;49.324;8.694;2022-09-20T02:22:15;100327.22;;;8.76;100.00
38716;BME280;24833;49.324;8.694;2022-09-20T02:25:05;100328.38;;;8.73;100.00
38716;BME280;24833;49.324;8.694;2022-09-20T02:28:22;100327.06;;;8.69;100.00
38716;BME280;24833;49.324;8.694;2022-09-20T02:31:32;100326.41;;;8.67;100.00
38716;BME280;24833;49.324;8.694;2022-09-20T02:40:05;100314.94;;;8.59;100.00
38716;BME280;24833;49.324;8.694;2022-09-20T02:46:09;100317.78;;;8.57;100.00
38716;BME280;24833;49.324;8.694;2022-09-20T02:48:59;100319.63;;;8.57;100.00
38716;BME280;24833;49.324;8.694;2022-09-20T02:51:50;100323.59;;;8.53;100.00
38716;BME280;24833;49.324;8.694;2022-09-20T02:55:02;100335.25;;;8.52;100.00
38716;BME280;24833;49.324;8.694;2022-09-20T02:57:56;100331.75;;;8.51;100.00
38716;BME280;24833;49.324;8.694;2022-09-20T03:00:58;100337.09;;;8.51;100.00
38716;BME280;24833;49.324;8.694;2022-09-20T03:07:17;100341.06;;;8.47;100.00
38716;BME280;24833;49.324;8.694;2022-09-20T03:10:10;100341.25;;;8.45;100.00
38716;BME280;24833;49.324;8.694;2022-09-20T03:13:09;100342.25;;;8.44;100.00
38716;BME280;24833;49.324;8.694;2022-09-20T03:16:12;100347.56;;;8.44;100.00
38716;BME280;24833;49.324;8.694;2022-09-20T03:19:57;100345.06;;;8.43;100.00
38716;BME280;24833;49.324;8.694;2022-09-20T03:22:23;100355.72;;;8.43;100.00
38716;BME280;24833;49.324;8.694;2022-09-20T03:25:33;100348.88;;;8.40;100.00
38716;BME280;24833;49.324;8.694;2022-09-20T03:34:57;100357.50;;;8.34;100.00
38716;BME280;24833;49.324;8.694;2022-09-20T03:40:55;100357.84;;;8.31;100.00
38716;BME280;24833;49.324;8.694;2022-09-20T03:46:26;100358.84;;;8.30;100.00
38716;BME280;24833;49.324;8.694;2022-09-20T03:52:59;100368.31;;;8.25;100.00
38716;BME280;24833;49.324;8.694;2022-09-20T04:13:35;100362.50;;;8.13;100.00
38716;BME280;24833;49.324;8.694;2022-09-20T04:16:34;100366.16;;;8.12;100.00
38716;BME280;24833;49.324;8.694;2022-09-20T04:19:20;100358.16;;;8.12;100.00
38716;BME280;24833;49.324;8.694;2022-09-20T04:27:36;100362.16;;;8.08;100.00
38716;BME280;24833;49.324;8.694;2022-09-20T04:30:19;100359.66;;;8.06;100.00
38716;BME280;24833;49.324;8.694;2022-09-20T04:32:52;100379.75;;;8.09;100.00
38716;BME280;24833;49.324;8.694;2022-09-20T04:35:46;100381.09;;;8.05;100.00
38716;BME280;24833;49.324;8.694;2022-09-20T04:38:34;100379.28;;;8.05;100.00
38716;BME280;24833;49.324;8.694;2022-09-20T04:41:28;100381.28;;;8.03;100.00
38716;BME280;24833;49.324;8.694;2022-09-20T05:05:58;100402.38;;;7.97;100.00
38716;BME280;24833;49.324;8.694;2022-09-20T05:14:59;100414.66;;;7.98;100.00
38716;BME280;24833;49.324;8.694;2022-09-20T05:18:02;100412.19;;;7.96;100.00
38716;BME280;24833;49.324;8.694;2022-09-20T05:23:55;100422.66;;;7.98;100.00
38716;BME280;24833;49.324;8.694;2022-09-20T05:26:48;100428.63;;;8.00;100.00
38716;BME280;24833;49.324;8.694;2022-09-20T05:41:12;100434.94;;;8.07;100.00
38716;BME280;24833;49.324;8.694;2022-09-20T05:44:14;100436.63;;;8.08;100.00
38716;BME280;24833;49.324;8.694;2022-09-20T05:47:17;100438.97;;;8.11;100.00
38716;BME280;24833;49.324;8.694;2022-09-20T05:52:58;100427.69;;;8.17;100.00
38716;BME280;24833;49.324;8.694;2022-09-20T05:59:08;100435.16;;;8.22;100.00
38716;BME280;24833;49.324;8.694;2022-09-20T06:04:30;100443.66;;;8.25;100.00
38716;BME280;24833;49.324;8.694;2022-09-20T06:10:15;100447.78;;;8.28;100.00
38716;BME280;24833;49.324;8.694;2022-09-20T06:16:06;100441.66;;;8.27;100.00
38716;BME280;24833;49.324;8.694;2022-09-20T06:18:49;100441.66;;;8.27;100.00
38716;BME280;24833;49.324;8.694;2022-09-20T06:21:31;100449.44;;;8.29;100.00
38716;BME280;24833;49.324;8.694;2022-09-20T06:24:02;100453.94;;;8.28;100.00
38716;BME280;24833;49.324;8.694;2022-09-20T06:26:35;100451.16;;;8.30;100.00
38716;BME280;24833;49.324;8.694;2022-09-20T06:29:05;100447.47;;;8.31;100.00
38716;BME280;24833;49.324;8.694;2022-09-20T06:31:37;100444.66;;;8.32;100.00
38716;BME280;24833;49.324;8.694;2022-09-20T06:34:12;100450.63;;;8.34;100.00
38716;BME280;24833;49.324;8.694;2022-09-20T06:36:50;100444.03;;;8.38;100.00
38716;BME280;24833;49.324;8.694;2022-09-20T06:42:52;100442.72;;;8.51;100.00
38716;BME280;24833;49.324;8.694;2022-09-20T06:45:20;100445.69;;;8.56;100.00
38716;BME280;24833;49.324;8.694;2022-09-20T06:47:47;100450.03;;;8.65;100.00
38716;BME280;24833;49.324;8.694;2022-09-20T06:50:15;100453.88;;;8.70;100.00
38716;BME280;24833;49.324;8.694;2022-09-20T06:52:43;100454.03;;;8.77;100.00
38716;BME280;24833;49.324;8.694;2022-09-20T06:55:21;100458.69;;;8.83;100.00
38716;BME280;24833;49.324;8.694;2022-09-20T06:57:55;100462.50;;;8.89;100.00
38716;BME280;24833;49.324;8.694;2022-09-20T07:00:22;100451.53;;;8.92;100.00
38716;BME280;24833;49.324;8.694;2022-09-20T07:02:50;100455.34;;;8.97;100.00
38716;BME280;24833;49.324;8.694;2022-09-20T07:05:17;100468.31;;;9.00;100.00
38716;BME280;24833;49.324;8.694;2022-09-20T07:07:47;100454.69;;;9.04;100.00
38716;BME280;24833;49.324;8.694;2022-09-20T07:10:14;100459.66;;;9.07;100.00
38716;BME280;24833;49.324;8.694;2022-09-20T07:12:41;100459.16;;;9.11;100.00
38716;BME280;24833;49.324;8.694;2022-09-20T07:15:09;100456.97;;;9.15;100.00
38716;BME280;24833;49.324;8.694;2022-09-20T07:17:36;100456.47;;;9.19;100.00
38716;BME280;24833;49.324;8.694;2022-09-20T07:20:03;100456.63;;;9.26;100.00
38716;BME280;24833;49.324;8.694;2022-09-20T07:22:30;100456.13;;;9.31;100.00
38716;BME280;24833;49.324;8.694;2022-09-20T07:24:57;100464.44;;;9.36;100.00
38716;BME280;24833;49.324;8.694;2022-09-20T07:27:28;100461.25;;;9.40;100.00
38716;BME280;24833;49.324;8.694;2022-09-20T07:29:56;100466.72;;;9.47;100.00
38716;BME280;24833;49.324;8.694;2022-09-20T07:32:23;100471.22;;;9.54;100.00
38716;BME280;24833;49.324;8.694;2022-09-20T07:34:49;100471.19;;;9.63;100.00
38716;BME280;24833;49.324;8.694;2022-09-20T07:37:17;100470.50;;;9.69;100.00
38716;BME280;24833;49.324;8.694;2022-09-20T07:39:45;100473.47;;;9.74;100.00
38716;BME280;24833;49.324;8.694;2022-09-20T07:42:12;100478.94;;;9.80;100.00
38716;BME280;24833;49.324;8.694;2022-09-20T07:44:39;100482.41;;;9.89;100.00
38716;BME280;24833;49.324;8.694;2022-09-20T07:47:09;100481.72;;;9.95;100.00
38716;BME280;24833;49.324;8.694;2022-09-20T07:49:36;100482.69;;;10.02;100.00
38716;BME280;24833;49.324;8.694;2022-09-20T07:52:03;100490.66;;;10.10;100.00
38716;BME280;24833;49.324;8.694;2022-09-20T07:54:30;100502.31;;;10.18;100.00
38716;BME280;24833;49.324;8.694;2022-09-20T07:56:58;100495.47;;;10.23;100.00
38716;BME280;24833;49.324;8.694;2022-09-20T07:59:25;100496.78;;;10.27;100.00
38716;BME280;24833;49.324;8.694;2022-09-20T08:01:51;100497.25;;;10.31;100.00
38716;BME280;24833;49.324;8.694;2022-09-20T08:04:18;100500.22;;;10.36;100.00
38716;BME280;24833;49.324;8.694;2022-09-20T08:06:45;100501.19;;;10.43;100.00
38716;BME280;24833;49.324;8.694;2022-09-20T08:09:13;100507.13;;;10.53;100.00
38716;BME280;24833;49.324;8.694;2022-09-20T08:11:41;100504.41;;;10.61;100.00
38716;BME280;24833;49.324;8.694;2022-09-20T08:14:14;100501.66;;;10.70;100.00
38716;BME280;24833;49.324;8.694;2022-09-20T08:16:44;100504.75;;;10.81;100.00
38716;BME280;24833;49.324;8.694;2022-09-20T08:19:20;100508.22;;;10.90;100.00
38716;BME280;24833;49.324;8.694;2022-09-20T08:21:51;100509.16;;;10.97;100.00
38716;BME280;24833;49.324;8.694;2022-09-20T08:24:20;100513.41;;;11.06;100.00
38716;BME280;24833;49.324;8.694;2022-09-20T08:26:47;100507.78;;;11.16;100.00
38716;BME280;24833;49.324;8.694;2022-09-20T08:29:14;100518.25;;;11.26;100.00
38716;BME280;24833;49.324;8.694;2022-09-20T08:31:42;100514.28;;;11.36;100.00
38716;BME280;24833;49.324;8.694;2022-09-20T08:34:11;100514.38;;;11.43;100.00
38716;BME280;24833;49.324;8.694;2022-09-20T08:36:41;100512.28;;;11.53;100.00
38716;BME280;24833;49.324;8.694;2022-09-20T08:39:12;100507.88;;;11.60;100.00
38716;BME280;24833;49.324;8.694;2022-09-20T08:42:21;100513.59;;;11.72;100.00
38716;BME280;24833;49.324;8.694;2022-09-20T08:44:55;100510.66;;;11.82;100.00
38716;BME280;24833;49.324;8.694;2022-09-20T08:47:29;100512.25;;;11.91;100.00
38716;BME280;24833;49.324;8.694;2022-09-20T08:49:58;100523.47;;;12.01;100.00
38716;BME280;24833;49.324;8.694;2022-09-20T08:52:37;100518.00;;;12.09;100.00
38716;BME280;24833;49.324;8.694;2022-09-20T08:57:48;100521.75;;;12.30;100.00
38716;BME280;24833;49.324;8.694;2022-09-20T09:00:22;100517.16;;;12.38;100.00
38716;BME280;24833;49.324;8.694;2022-09-20T09:02:54;100509.19;;;12.45;100.00
38716;BME280;24833;49.324;8.694;2022-09-20T09:05:28;100509.34;;;12.58;100.00
38716;BME280;24833;49.324;8.694;2022-09-20T09:08:05;100508.19;;;12.67;100.00
38716;BME280;24833;49.324;8.694;2022-09-20T09:10:37;100512.22;;;12.78;100.00
38716;BME280;24833;49.324;8.694;2022-09-20T09:13:23;100510.84;;;12.89;100.00
38716;BME280;24833;49.324;8.694;2022-09-20T09:16:04;100511.94;;;12.94;100.00
38716;BME280;24833;49.324;8.694;2022-09-20T09:18:40;100506.00;;;12.99;100.00
38716;BME280;24833;49.324;8.694;2022-09-20T09:21:08;100503.94;;;13.01;100.00
38716;BME280;24833;49.324;8.694;2022-09-20T09:24:25;100504.47;;;13.11;100.00
38716;BME280;24833;49.324;8.694;2022-09-20T09:27:17;100506.13;;;13.12;100.00
38716;BME280;24833;49.324;8.694;2022-09-20T09:29:53;100509.03;;;13.17;100.00
38716;BME280;24833;49.324;8.694;2022-09-20T09:32:31;100501.47;;;13.21;100.00
38716;BME280;24833;49.324;8.694;2022-09-20T09:35:28;100506.44;;;13.24;100.00
38716;BME280;24833;49.324;8.694;2022-09-20T09:38:01;100504.97;;;13.21;100.00
38716;BME280;24833;49.324;8.694;2022-09-20T09:40:31;100505.81;;;13.22;100.00
38716;BME280;24833;49.324;8.694;2022-09-20T09:43:01;100506.81;;;13.21;100.00
38716;BME280;24833;49.324;8.694;2022-09-20T09:45:37;100499.63;;;13.21;100.00
38716;BME280;24833;49.324;8.694;2022-09-20T09:48:28;100506.63;;;13.22;100.00
38716;BME280;24833;49.324;8.694;2022-09-20T09:51:13;100504.16;;;13.21;100.00
38716;BME280;24833;49.324;8.694;2022-09-20T09:53:46;100497.97;;;13.20;100.00
38716;BME280;24833;49.324;8.694;2022-09-20T09:56:50;100501.91;;;13.24;100.00
38716;BME280;24833;49.324;8.694;2022-09-20T09:59:55;100493.88;;;13.24;100.00
38716;BME280;24833;49.324;8.694;2022-09-20T10:06:10;100500.44;;;13.22;100.00
38716;BME280;24833;49.324;8.694;2022-09-20T10:12:39;100493.97;;;13.16;100.00
38716;BME280;24833;49.324;8.694;2022-09-20T10:15:30;100490.59;;;13.07;100.00
38716;BME280;24833;49.324;8.694;2022-09-20T10:18:51;100492.66;;;13.05;100.00
38716;BME280;24833;49.324;8.694;2022-09-20T10:40:42;100491.41;;;12.80;100.00
38716;BME280;24833;49.324;8.694;2022-09-20T10:44:04;100488.09;;;12.78;100.00
38716;BME280;24833;49.324;8.694;2022-09-20T10:49:58;100500.00;;;12.75;100.00
38716;BME280;24833;49.324;8.694;2022-09-20T10:59:05;100493.00;;;12.74;100.00
38716;BME280;24833;49.324;8.694;2022-09-20T11:02:02;100481.91;;;12.77;100.00
38716;BME280;24833;49.324;8.694;2022-09-20T11:13:46;100476.72;;;12.97;100.00
38716;BME280;24833;49.324;8.694;2022-09-20T11:22:39;100480.00;;;13.49;100.00
38716;BME280;24833;49.324;8.694;2022-09-20T11:25:22;100482.34;;;13.58;100.00
38716;BME280;24833;49.324;8.694;2022-09-20T11:28:06;100477.84;;;13.66;100.00
38716;BME280;24833;49.324;8.694;2022-09-20T11:30:49;100478.91;;;13.71;100.00
38716;BME280;24833;49.324;8.694;2022-09-20T11:36:58;100484.34;;;13.84;100.00
38716;BME280;24833;49.324;8.694;2022-09-20T11:42:00;100488.41;;;13.74;100.00
38716;BME280;24833;49.324;8.694;2022-09-20T11:44:29;100479.28;;;13.68;100.00
38716;BME280;24833;49.324;8.694;2022-09-20T11:47:06;100491.06;;;13.67;100.00
38716;BME280;24833;49.324;8.694;2022-09-20T11:53:15;100496.75;;;13.57;100.00
38716;BME280;24833;49.324;8.694;2022-09-20T11:56:05;100499.03;;;13.54;100.00
38716;BME280;24833;49.324;8.694;2022-09-20T11:58:48;100499.81;;;13.48;100.00
38716;BME280;24833;49.324;8.694;2022-09-20T12:01:32;100501.88;;;13.46;100.00
38716;BME280;24833;49.324;8.694;2022-09-20T12:04:41;100498.53;;;13.44;100.00
38716;BME280;24833;49.324;8.694;2022-09-20T12:10:00;100490.31;;;13.45;100.00
38716;BME280;24833;49.324;8.694;2022-09-20T12:12:59;100494.06;;;13.51;100.00
38716;BME280;24833;49.324;8.694;2022-09-20T12:15:38;100501.69;;;13.54;100.00
38716;BME280;24833;49.324;8.694;2022-09-20T12:21:09;100484.88;;;13.73;100.00
38716;BME280;24833;49.324;8.694;2022-09-20T12:26:43;100484.44;;;14.11;100.00
38716;BME280;24833;49.324;8.694;2022-09-20T12:32:00;100478.72;;;14.34;100.00
38716;BME280;24833;49.324;8.694;2022-09-20T12:34:35;100473.78;;;14.44;100.00
38716;BME280;24833;49.324;8.694;2022-09-20T12:39:36;100474.88;;;14.63;100.00
38716;BME280;24833;49.324;8.694;2022-09-20T12:42:28;100467.66;;;14.77;100.00
38716;BME280;24833;49.324;8.694;2022-09-20T12:45:15;100475.56;;;14.85;100.00
38716;BME280;24833;49.324;8.694;2022-09-20T12:47:53;100478.84;;;14.93;100.00
38716;BME280;24833;49.324;8.694;2022-09-20T12:50:21;100468.72;;;14.95;100.00
38716;BME280;24833;49.324;8.694;2022-09-20T12:53:16;100479.69;;;15.01;100.00
38716;BME280;24833;49.324;8.694;2022-09-20T12:56:05;100463.13;;;15.10;100.00
38716;BME280;24833;49.324;8.694;2022-09-20T12:58:49;100461.66;;;15.27;100.00
38716;BME280;24833;49.324;8.694;2022-09-20T13:03:47;100458.13;;;15.47;100.00
38716;BME280;24833;49.324;8.694;2022-09-20T13:11:55;100454.09;;;15.83;100.00
38716;BME280;24833;49.324;8.694;2022-09-20T13:14:31;100454.50;;;15.86;100.00
38716;BME280;24833;49.324;8.694;2022-09-20T13:17:12;100451.38;;;15.89;100.00
38716;BME280;24833;49.324;8.694;2022-09-20T13:19:46;100450.72;;;16.00;100.00
38716;BME280;24833;49.324;8.694;2022-09-20T13:22:36;100461.03;;;16.10;100.00
38716;BME280;24833;49.324;8.694;2022-09-20T13:25:13;100452.03;;;16.23;100.00
38716;BME280;24833;49.324;8.694;2022-09-20T13:28:32;100452.16;;;16.41;100.00
38716;BME280;24833;49.324;8.694;2022-09-20T13:33:47;100454.75;;;16.54;100.00
38716;BME280;24833;49.324;8.694;2022-09-20T13:36:21;100445.81;;;16.60;100.00
38716;BME280;24833;49.324;8.694;2022-09-20T13:38:50;100455.09;;;16.65;100.00
38716;BME280;24833;49.324;8.694;2022-09-20T13:41:18;100446.34;;;16.69;100.00
38716;BME280;24833;49.324;8.694;2022-09-20T13:43:46;100450.09;;;16.75;100.00
38716;BME280;24833;49.324;8.694;2022-09-20T13:48:55;100447.06;;;16.89;100.00
38716;BME280;24833;49.324;8.694;2022-09-20T13:51:27;100442.88;;;16.94;100.00
38716;BME280;24833;49.324;8.694;2022-09-20T13:57:09;100447.41;;;17.00;100.00
38716;BME280;24833;49.324;8.694;2022-09-20T13:59:44;100454.34;;;16.89;100.00
38716;BME280;24833;49.324;8.694;2022-09-20T14:02:30;100439.03;;;16.83;100.00
38716;BME280;24833;49.324;8.694;2022-09-20T14:05:04;100438.25;;;16.76;100.00
38716;BME280;24833;49.324;8.694;2022-09-20T14:07:31;100450.09;;;16.75;100.00
38716;BME280;24833;49.324;8.694;2022-09-20T14:09:59;100446.34;;;16.76;100.00
38716;BME280;24833;49.324;8.694;2022-09-20T14:12:26;100442.38;;;16.78;100.00
38716;BME280;24833;49.324;8.694;2022-09-20T14:14:54;100442.00;;;16.75;100.00
38716;BME280;24833;49.324;8.694;2022-09-20T14:17:22;100452.19;;;16.73;100.00
38716;BME280;24833;49.324;8.694;2022-09-20T14:19:52;100451.16;;;16.67;100.00
38716;BME280;24833;49.324;8.694;2022-09-20T14:22:26;100447.63;;;16.67;100.00
38716;BME280;24833;49.324;8.694;2022-09-20T14:25:19;100450.16;;;16.61;100.00
38716;BME280;24833;49.324;8.694;2022-09-20T14:27:47;100446.69;;;16.54;100.00
38716;BME280;24833;49.324;8.694;2022-09-20T14:30:35;100441.88;;;16.56;100.00
38716;BME280;24833;49.324;8.694;2022-09-20T14:33:04;100434.88;;;16.49;100.00
38716;BME280;24833;49.324;8.694;2022-09-20T14:35:33;100438.22;;;16.44;100.00
38716;BME280;24833;49.324;8.694;2022-09-20T14:38:06;100438.69;;;16.41;100.00
38716;BME280;24833;49.324;8.694;2022-09-20T14:40:46;100439.53;;;16.35;100.00
38716;BME280;24833;49.324;8.694;2022-09-20T14:43:34;100433.38;;;16.28;100.00
38716;BME280;24833;49.324;8.694;2022-09-20T14:46:15;100443.13;;;16.22;100.00
38716;BME280;24833;49.324;8.694;2022-09-20T14:48:43;100442.97;;;16.11;100.00
38716;BME280;24833;49.324;8.694;2022-09-20T14:53:51;100440.16;;;15.99;100.00
38716;BME280;24833;49.324;8.694;2022-09-20T14:56:46;100440.78;;;15.94;100.00
38716;BME280;24833;49.324;8.694;2022-09-20T15:02:01;100443.31;;;15.83;100.00
38716;BME280;24833;49.324;8.694;2022-09-20T15:04:29;100443.34;;;15.76;100.00
38716;BME280;24833;49.324;8.694;2022-09-20T15:07:04;100444.81;;;15.72;100.00
38716;BME280;24833;49.324;8.694;2022-09-20T15:09:32;100436.56;;;15.67;100.00
38716;BME280;24833;49.324;8.694;2022-09-20T15:12:14;100441.53;;;15.63;100.00
38716;BME280;24833;49.324;8.694;2022-09-20T15:14:41;100436.75;;;15.59;100.00
38716;BME280;24833;49.324;8.694;2022-09-20T15:17:19;100433.88;;;15.53;100.00
38716;BME280;24833;49.324;8.694;2022-09-20T15:19:48;100442.78;;;15.47;100.00
38716;BME280;24833;49.324;8.694;2022-09-20T15:22:16;100439.69;;;15.44;100.00
38716;BME280;24833;49.324;8.694;2022-09-20T15:24:43;100437.63;;;15.39;100.00
38716;BME280;24833;49.324;8.694;2022-09-20T15:27:11;100443.19;;;15.38;100.00
38716;BME280;24833;49.324;8.694;2022-09-20T15:29:38;100441.16;;;15.33;100.00
38716;BME280;24833;49.324;8.694;2022-09-20T15:32:06;100438.28;;;15.28;100.00
38716;BME280;24833;49.324;8.694;2022-09-20T15:34:35;100438.28;;;15.21;100.00
38716;BME280;24833;49.324;8.694;2022-09-20T15:37:02;100440.53;;;15.18;100.00
38716;BME280;24833;49.324;8.694;2022-09-20T15:39:30;100440.38;;;15.13;100.00
38716;BME280;24833;49.324;8.694;2022-09-20T15:41:57;100443.47;;;15.10;100.00
38716;BME280;24833;49.324;8.694;2022-09-20T15:44:24;100452.78;;;15.07;100.00
38716;BME280;24833;49.324;8.694;2022-09-20T15:46:51;100448.00;;;15.03;100.00
38716;BME280;24833;49.324;8.694;2022-09-20T15:49:19;100449.06;;;15.02;100.00
38716;BME280;24833;49.324;8.694;2022-09-20T15:51:47;100445.75;;;14.99;100.00
38716;BME280;24833;49.324;8.694;2022-09-20T15:54:14;100454.03;;;14.98;100.00
38716;BME280;24833;49.324;8.694;2022-09-20T15:56:41;100450.72;;;14.96;100.00
38716;BME280;24833;49.324;8.694;2022-09-20T15:59:10;100447.63;;;14.92;100.00
38716;BME280;24833;49.324;8.694;2022-09-20T16:01:41;100445.34;;;14.89;100.00
38716;BME280;24833;49.324;8.694;2022-09-20T16:04:11;100450.31;;;14.86;100.00
38716;BME280;24833;49.324;8.694;2022-09-20T16:06:41;100449.28;;;14.80;100.00
38716;BME280;24833;49.324;8.694;2022-09-20T16:09:09;100453.19;;;14.78;100.00
38716;BME280;24833;49.324;8.694;2022-09-20T16:11:36;100445.75;;;14.73;100.00
38716;BME280;24833;49.324;8.694;2022-09-20T16:14:05;100449.06;;;14.68;100.00
38716;BME280;24833;49.324;8.694;2022-09-20T16:16:34;100451.34;;;14.65;100.00
38716;BME280;24833;49.324;8.694;2022-09-20T16:19:08;100451.13;;;14.60;100.00
38716;BME280;24833;49.324;8.694;2022-09-20T16:21:53;100447.16;;;14.56;100.00
38716;BME280;24833;49.324;8.694;2022-09-20T16:24:31;100454.84;;;14.52;100.00
38716;BME280;24833;49.324;8.694;2022-09-20T16:27:01;100455.66;;;14.46;100.00
38716;BME280;24833;49.324;8.694;2022-09-20T16:29:29;100457.25;;;14.40;100.00
38716;BME280;24833;49.324;8.694;2022-09-20T16:31:57;100460.31;;;14.37;100.00
38716;BME280;24833;49.324;8.694;2022-09-20T16:34:34;100461.78;;;14.33;100.00
38716;BME280;24833;49.324;8.694;2022-09-20T16:37:06;100461.56;;;14.28;100.00
38716;BME280;24833;49.324;8.694;2022-09-20T16:39:36;100461.16;;;14.25;100.00
38716;BME280;24833;49.324;8.694;2022-09-20T16:42:05;100458.03;;;14.21;100.00
38716;BME280;24833;49.324;8.694;2022-09-20T16:44:38;100460.09;;;14.19;100.00
38716;BME280;24833;49.324;8.694;2022-09-20T16:47:13;100462.34;;;14.15;100.00
38716;BME280;24833;49.324;8.694;2022-09-20T16:49:46;100458.22;;;14.13;100.00
38716;BME280;24833;49.324;8.694;2022-09-20T16:52:13;100461.28;;;14.10;100.00
38716;BME280;24833;49.324;8.694;2022-09-20T16:54:40;100465.22;;;14.07;100.00
38716;BME280;24833;49.324;8.694;2022-09-20T16:57:08;100471.19;;;14.03;100.00
38716;BME280;24833;49.324;8.694;2022-09-20T16:59:35;100470.75;;;13.99;100.00
38716;BME280;24833;49.324;8.694;2022-09-20T17:02:02;100465.78;;;13.96;100.00
38716;BME280;24833;49.324;8.694;2022-09-20T17:04:29;100462.69;;;13.93;100.00
38716;BME280;24833;49.324;8.694;2022-09-20T17:06:57;100470.09;;;13.90;100.00
38716;BME280;24833;49.324;8.694;2022-09-20T17:09:24;100474.84;;;13.88;100.00
38716;BME280;24833;49.324;8.694;2022-09-20T17:12:06;100476.06;;;13.86;100.00
38716;BME280;24833;49.324;8.694;2022-09-20T17:14:37;100478.97;;;13.84;100.00
38716;BME280;24833;49.324;8.694;2022-09-20T17:17:05;100476.88;;;13.80;100.00
38716;BME280;24833;49.324;8.694;2022-09-20T17:19:33;100486.13;;;13.77;100.00
38716;BME280;24833;49.324;8.694;2022-09-20T17:22:01;100490.25;;;13.73;100.00
38716;BME280;24833;49.324;8.694;2022-09-20T17:24:29;100481.97;;;13.68;100.00
38716;BME280;24833;49.324;8.694;2022-09-20T17:26:56;100492.47;;;13.63;100.00
38716;BME280;24833;49.324;8.694;2022-09-20T17:29:26;100489.56;;;13.58;100.00
38716;BME280;24833;49.324;8.694;2022-09-20T17:31:54;100494.47;;;13.54;100.00
38716;BME280;24833;49.324;8.694;2022-09-20T17:34:30;100490.72;;;13.49;100.00
38716;BME280;24833;49.324;8.694;2022-09-20T17:36:58;100499.38;;;13.44;100.00
38716;BME280;24833;49.324;8.694;2022-09-20T17:39:29;100499.34;;;13.38;100.00
38716;BME280;24833;49.324;8.694;2022-09-20T17:41:56;100500.13;;;13.31;100.00